sensor_id;sensor_type;location;lat;lon;timestamp;temperature;humidity
19220;DHT22;9744;49.364;7.484;2024-02-26T00:01:33;6.40;99.90
19220;DHT22;9744;49.364;7.484;2024-02-26T00:04:00;6.30;99.90
19220;DHT22;9744;49.364;7.484;2024-02-26T00:06:28;6.20;99.90
19220;DHT22;9744;49.364;7.484;2024-02-26T00:08:55;6.10;99.90
19220;DHT22;9744;49.364;7.484;2024-02-26T00:11:23;6.00;99.90
19220;DHT22;9744;49.364;7.484;2024-02-26T00:13:50;6.00;99.90
19220;DHT22;9744;49.364;7.484;2024-02-26T00:16:17;5.90;99.90
19220;DHT22;9744;49.364;7.484;2024-02-26T00:18:45;5.80;99.90
19220;DHT22;9744;49.364;7.484;2024-02-26T00:21:13;5.80;99.90
19220;DHT22;9744;49.364;7.484;2024-02-26T00:23:40;5.70;99.90
19220;DHT22;9744;49.364;7.484;2024-02-26T00:26:07;5.70;99.90
19220;DHT22;9744;49.364;7.484;2024-02-26T00:28:36;5.60;99.90
19220;DHT22;9744;49.364;7.484;2024-02-26T00:31:03;5.60;99.90
19220;DHT22;9744;49.364;7.484;2024-02-26T00:33:31;5.50;99.90
19220;DHT22;9744;49.364;7.484;2024-02-26T00:35:59;5.50;99.90
19220;DHT22;9744;49.364;7.484;2024-02-26T00:38:27;5.50;99.90
19220;DHT22;9744;49.364;7.484;2024-02-26T00:40:54;5.40;99.90
19220;DHT22;9744;49.364;7.484;2024-02-26T00:43:21;5.40;99.90
19220;DHT22;9744;49.364;7.484;2024-02-26T00:45:54;5.40;99.90
19220;DHT22;9744;49.364;7.484;2024-02-26T00:48:21;5.30;99.90
19220;DHT22;9744;49.364;7.484;2024-02-26T00:50:48;5.30;99.90
19220;DHT22;9744;49.364;7.484;2024-02-26T00:53:17;5.20;99.90
19220;DHT22;9744;49.364;7.484;2024-02-26T00:55:44;5.20;99.90
19220;DHT22;9744;49.364;7.484;2024-02-26T00:58:11;5.20;99.90
19220;DHT22;9744;49.364;7.484;2024-02-26T01:00:38;5.20;99.90
19220;DHT22;9744;49.364;7.484;2024-02-26T01:03:05;5.10;99.90
19220;DHT22;9744;49.364;7.484;2024-02-26T01:05:33;5.10;99.90
19220;DHT22;9744;49.364;7.484;2024-02-26T01:08:00;5.10;99.90
19220;DHT22;9744;49.364;7.484;2024-02-26T01:10:29;5.10;99.90
19220;DHT22;9744;49.364;7.484;2024-02-26T01:12:57;5.00;99.90
19220;DHT22;9744;49.364;7.484;2024-02-26T01:15:24;5.00;99.90
19220;DHT22;9744;49.364;7.484;2024-02-26T01:17:51;5.00;99.90
19220;DHT22;9744;49.364;7.484;2024-02-26T01:20:18;5.00;99.90
19220;DHT22;9744;49.364;7.484;2024-02-26T01:22:45;5.00;99.90
19220;DHT22;9744;49.364;7.484;2024-02-26T01:25:13;5.00;99.90
19220;DHT22;9744;49.364;7.484;2024-02-26T01:27:43;5.00;99.90
19220;DHT22;9744;49.364;7.484;2024-02-26T01:30:10;4.90;99.90
19220;DHT22;9744;49.364;7.484;2024-02-26T01:32:38;4.90;99.90
19220;DHT22;9744;49.364;7.484;2024-02-26T01:35:06;4.90;99.90
19220;DHT22;9744;49.364;7.484;2024-02-26T01:37:37;4.80;99.90
19220;DHT22;9744;49.364;7.484;2024-02-26T01:40:06;4.80;99.90
19220;DHT22;9744;49.364;7.484;2024-02-26T01:42:38;4.80;99.90
19220;DHT22;9744;49.364;7.484;2024-02-26T01:45:12;4.80;99.90
19220;DHT22;9744;49.364;7.484;2024-02-26T01:47:47;4.80;99.90
19220;DHT22;9744;49.364;7.484;2024-02-26T01:50:14;4.80;99.90
19220;DHT22;9744;49.364;7.484;2024-02-26T01:52:42;4.80;99.90
19220;DHT22;9744;49.364;7.484;2024-02-26T01:55:10;4.70;99.90
19220;DHT22;9744;49.364;7.484;2024-02-26T01:57:37;4.70;99.90
19220;DHT22;9744;49.364;7.484;2024-02-26T02:00:11;4.70;99.90
19220;DHT22;9744;49.364;7.484;2024-02-26T02:02:39;4.70;99.90
19220;DHT22;9744;49.364;7.484;2024-02-26T02:05:09;4.70;99.90
19220;DHT22;9744;49.364;7.484;2024-02-26T02:07:37;4.70;99.90
19220;DHT22;9744;49.364;7.484;2024-02-26T02:10:06;4.70;99.90
19220;DHT22;9744;49.364;7.484;2024-02-26T02:12:34;4.70;99.90
19220;DHT22;9744;49.364;7.484;2024-02-26T02:15:02;4.60;99.90
19220;DHT22;9744;49.364;7.484;2024-02-26T02:17:31;4.60;99.90
19220;DHT22;9744;49.364;7.484;2024-02-26T02:19:58;4.60;99.90
19220;DHT22;9744;49.364;7.484;2024-02-26T02:22:27;4.50;99.90
19220;DHT22;9744;49.364;7.484;2024-02-26T02:24:54;4.50;99.90
19220;DHT22;9744;49.364;7.484;2024-02-26T02:27:21;4.40;99.90
19220;DHT22;9744;49.364;7.484;2024-02-26T02:29:49;4.40;99.90
19220;DHT22;9744;49.364;7.484;2024-02-26T02:32:17;4.40;99.90
19220;DHT22;9744;49.364;7.484;2024-02-26T02:34:45;4.30;99.90
19220;DHT22;9744;49.364;7.484;2024-02-26T02:37:12;4.30;99.90
19220;DHT22;9744;49.364;7.484;2024-02-26T02:39:43;4.20;99.90
19220;DHT22;9744;49.364;7.484;2024-02-26T02:42:11;4.20;99.90
19220;DHT22;9744;49.364;7.484;2024-02-26T02:44:38;4.20;99.90
19220;DHT22;9744;49.364;7.484;2024-02-26T02:47:06;4.20;99.90
19220;DHT22;9744;49.364;7.484;2024-02-26T02:49:33;4.20;99.90
19220;DHT22;9744;49.364;7.484;2024-02-26T02:52:00;4.20;99.90
19220;DHT22;9744;49.364;7.484;2024-02-26T02:54:27;4.20;99.90
19220;DHT22;9744;49.364;7.484;2024-02-26T02:56:56;4.20;99.90
19220;DHT22;9744;49.364;7.484;2024-02-26T02:59:23;4.10;99.90
19220;DHT22;9744;49.364;7.484;2024-02-26T03:01:50;4.10;99.90
19220;DHT22;9744;49.364;7.484;2024-02-26T03:04:17;4.10;99.90
19220;DHT22;9744;49.364;7.484;2024-02-26T03:06:45;4.10;99.90
19220;DHT22;9744;49.364;7.484;2024-02-26T03:09:12;4.10;99.90
19220;DHT22;9744;49.364;7.484;2024-02-26T03:11:39;4.10;99.90
19220;DHT22;9744;49.364;7.484;2024-02-26T03:14:08;4.10;99.90
19220;DHT22;9744;49.364;7.484;2024-02-26T03:16:35;4.10;99.90
19220;DHT22;9744;49.364;7.484;2024-02-26T03:19:03;4.10;99.90
19220;DHT22;9744;49.364;7.484;2024-02-26T03:21:30;4.10;99.90
19220;DHT22;9744;49.364;7.484;2024-02-26T03:23:57;4.20;99.90
19220;DHT22;9744;49.364;7.484;2024-02-26T03:26:24;4.20;99.90
19220;DHT22;9744;49.364;7.484;2024-02-26T03:28:51;4.10;99.90
19220;DHT22;9744;49.364;7.484;2024-02-26T03:31:20;4.10;99.90
19220;DHT22;9744;49.364;7.484;2024-02-26T03:33:47;4.10;99.90
19220;DHT22;9744;49.364;7.484;2024-02-26T03:36:14;4.10;99.90
19220;DHT22;9744;49.364;7.484;2024-02-26T03:38:46;4.10;99.90
19220;DHT22;9744;49.364;7.484;2024-02-26T03:41:13;4.20;99.90
19220;DHT22;9744;49.364;7.484;2024-02-26T03:43:40;4.10;99.90
19220;DHT22;9744;49.364;7.484;2024-02-26T03:46:08;4.10;99.90
19220;DHT22;9744;49.364;7.484;2024-02-26T03:48:38;4.10;99.90
19220;DHT22;9744;49.364;7.484;2024-02-26T03:51:05;4.10;99.90
19220;DHT22;9744;49.364;7.484;2024-02-26T03:53:33;4.10;99.90
19220;DHT22;9744;49.364;7.484;2024-02-26T03:56:03;4.10;99.90
19220;DHT22;9744;49.364;7.484;2024-02-26T03:58:31;4.10;99.90
19220;DHT22;9744;49.364;7.484;2024-02-26T04:00:59;4.20;99.90
19220;DHT22;9744;49.364;7.484;2024-02-26T04:03:26;4.20;99.90
19220;DHT22;9744;49.364;7.484;2024-02-26T04:05:55;4.20;99.90
19220;DHT22;9744;49.364;7.484;2024-02-26T04:08:22;4.20;99.90
19220;DHT22;9744;49.364;7.484;2024-02-26T04:11:15;4.20;99.90
19220;DHT22;9744;49.364;7.484;2024-02-26T04:13:44;4.20;99.90
19220;DHT22;9744;49.364;7.484;2024-02-26T04:16:15;4.20;99.90
19220;DHT22;9744;49.364;7.484;2024-02-26T04:18:42;4.30;99.90
19220;DHT22;9744;49.364;7.484;2024-02-26T04:21:11;4.30;99.90
19220;DHT22;9744;49.364;7.484;2024-02-26T04:23:38;4.30;99.90
19220;DHT22;9744;49.364;7.484;2024-02-26T04:26:05;4.30;99.90
19220;DHT22;9744;49.364;7.484;2024-02-26T04:28:32;4.30;99.90
19220;DHT22;9744;49.364;7.484;2024-02-26T04:31:00;4.30;99.90
19220;DHT22;9744;49.364;7.484;2024-02-26T04:33:28;4.30;99.90
19220;DHT22;9744;49.364;7.484;2024-02-26T04:35:55;4.30;99.90
19220;DHT22;9744;49.364;7.484;2024-02-26T04:38:24;4.30;99.90
19220;DHT22;9744;49.364;7.484;2024-02-26T04:40:52;4.30;99.90
19220;DHT22;9744;49.364;7.484;2024-02-26T04:43:19;4.30;99.90
19220;DHT22;9744;49.364;7.484;2024-02-26T04:45:46;4.30;99.90
19220;DHT22;9744;49.364;7.484;2024-02-26T04:48:14;4.30;99.90
19220;DHT22;9744;49.364;7.484;2024-02-26T04:50:41;4.30;99.90
19220;DHT22;9744;49.364;7.484;2024-02-26T04:53:08;4.30;99.90
19220;DHT22;9744;49.364;7.484;2024-02-26T04:55:37;4.30;99.90
19220;DHT22;9744;49.364;7.484;2024-02-26T04:58:04;4.40;99.90
19220;DHT22;9744;49.364;7.484;2024-02-26T05:00:31;4.40;99.90
19220;DHT22;9744;49.364;7.484;2024-02-26T05:02:59;4.40;99.90
19220;DHT22;9744;49.364;7.484;2024-02-26T05:05:26;4.40;99.90
19220;DHT22;9744;49.364;7.484;2024-02-26T05:07:53;4.30;99.90
19220;DHT22;9744;49.364;7.484;2024-02-26T05:10:20;4.40;99.90
19220;DHT22;9744;49.364;7.484;2024-02-26T05:12:51;4.40;99.90
19220;DHT22;9744;49.364;7.484;2024-02-26T05:15:19;4.40;99.90
19220;DHT22;9744;49.364;7.484;2024-02-26T05:17:46;4.40;99.90
19220;DHT22;9744;49.364;7.484;2024-02-26T05:20:15;4.40;99.90
19220;DHT22;9744;49.364;7.484;2024-02-26T05:22:42;4.40;99.90
19220;DHT22;9744;49.364;7.484;2024-02-26T05:25:10;4.40;99.90
19220;DHT22;9744;49.364;7.484;2024-02-26T05:27:37;4.40;99.90
19220;DHT22;9744;49.364;7.484;2024-02-26T05:30:11;4.40;99.90
19220;DHT22;9744;49.364;7.484;2024-02-26T05:32:39;4.40;99.90
19220;DHT22;9744;49.364;7.484;2024-02-26T05:35:07;4.40;99.90
19220;DHT22;9744;49.364;7.484;2024-02-26T05:37:34;4.40;99.90
19220;DHT22;9744;49.364;7.484;2024-02-26T05:40:01;4.40;99.90
19220;DHT22;9744;49.364;7.484;2024-02-26T05:42:30;4.40;99.90
19220;DHT22;9744;49.364;7.484;2024-02-26T05:44:58;4.40;99.90
19220;DHT22;9744;49.364;7.484;2024-02-26T05:47:32;4.40;99.90
19220;DHT22;9744;49.364;7.484;2024-02-26T05:49:59;4.40;99.90
19220;DHT22;9744;49.364;7.484;2024-02-26T05:52:26;4.40;99.90
19220;DHT22;9744;49.364;7.484;2024-02-26T05:54:58;4.40;99.90
19220;DHT22;9744;49.364;7.484;2024-02-26T05:57:25;4.40;99.90
19220;DHT22;9744;49.364;7.484;2024-02-26T05:59:52;4.40;99.90
19220;DHT22;9744;49.364;7.484;2024-02-26T06:02:19;4.30;99.90
19220;DHT22;9744;49.364;7.484;2024-02-26T06:04:48;4.40;99.90
19220;DHT22;9744;49.364;7.484;2024-02-26T06:07:15;4.40;99.90
19220;DHT22;9744;49.364;7.484;2024-02-26T06:09:42;4.40;99.90
19220;DHT22;9744;49.364;7.484;2024-02-26T06:12:17;4.30;99.90
19220;DHT22;9744;49.364;7.484;2024-02-26T06:14:44;4.30;99.90
19220;DHT22;9744;49.364;7.484;2024-02-26T06:17:11;4.30;99.90
19220;DHT22;9744;49.364;7.484;2024-02-26T06:19:38;4.40;99.90
19220;DHT22;9744;49.364;7.484;2024-02-26T06:22:07;4.30;99.90
19220;DHT22;9744;49.364;7.484;2024-02-26T06:24:34;4.40;99.90
19220;DHT22;9744;49.364;7.484;2024-02-26T06:27:01;4.40;99.90
19220;DHT22;9744;49.364;7.484;2024-02-26T06:29:29;4.40;99.90
19220;DHT22;9744;49.364;7.484;2024-02-26T06:31:56;4.40;99.90
19220;DHT22;9744;49.364;7.484;2024-02-26T06:34:24;4.40;99.90
19220;DHT22;9744;49.364;7.484;2024-02-26T06:36:51;4.40;99.90
19220;DHT22;9744;49.364;7.484;2024-02-26T06:39:20;4.40;99.90
19220;DHT22;9744;49.364;7.484;2024-02-26T06:41:48;4.40;99.90
19220;DHT22;9744;49.364;7.484;2024-02-26T06:44:15;4.40;99.90
19220;DHT22;9744;49.364;7.484;2024-02-26T06:46:44;4.40;99.90
19220;DHT22;9744;49.364;7.484;2024-02-26T06:49:11;4.40;99.90
19220;DHT22;9744;49.364;7.484;2024-02-26T06:51:38;4.40;99.90
19220;DHT22;9744;49.364;7.484;2024-02-26T06:54:06;4.40;99.90
19220;DHT22;9744;49.364;7.484;2024-02-26T06:56:34;4.40;99.90
19220;DHT22;9744;49.364;7.484;2024-02-26T06:59:03;4.40;99.90
19220;DHT22;9744;49.364;7.484;2024-02-26T07:01:31;4.40;99.90
19220;DHT22;9744;49.364;7.484;2024-02-26T07:04:00;4.40;99.90
19220;DHT22;9744;49.364;7.484;2024-02-26T07:06:28;4.40;99.90
19220;DHT22;9744;49.364;7.484;2024-02-26T07:08:55;4.50;99.90
19220;DHT22;9744;49.364;7.484;2024-02-26T07:11:23;4.50;99.90
19220;DHT22;9744;49.364;7.484;2024-02-26T07:13:51;4.50;99.90
19220;DHT22;9744;49.364;7.484;2024-02-26T07:16:19;4.50;99.90
19220;DHT22;9744;49.364;7.484;2024-02-26T07:18:46;4.50;99.90
19220;DHT22;9744;49.364;7.484;2024-02-26T07:21:17;4.60;99.90
19220;DHT22;9744;49.364;7.484;2024-02-26T07:23:45;4.50;99.90
19220;DHT22;9744;49.364;7.484;2024-02-26T07:26:13;4.60;99.90
19220;DHT22;9744;49.364;7.484;2024-02-26T07:28:40;4.60;99.90
19220;DHT22;9744;49.364;7.484;2024-02-26T07:31:09;4.60;99.90
19220;DHT22;9744;49.364;7.484;2024-02-26T07:33:37;4.60;99.90
19220;DHT22;9744;49.364;7.484;2024-02-26T07:36:05;4.70;99.90
19220;DHT22;9744;49.364;7.484;2024-02-26T07:38:33;4.70;99.90
19220;DHT22;9744;49.364;7.484;2024-02-26T07:41:02;4.70;99.90
19220;DHT22;9744;49.364;7.484;2024-02-26T07:43:29;4.70;99.90
19220;DHT22;9744;49.364;7.484;2024-02-26T07:46:00;4.70;99.90
19220;DHT22;9744;49.364;7.484;2024-02-26T07:48:34;4.70;99.90
19220;DHT22;9744;49.364;7.484;2024-02-26T07:51:01;4.70;99.90
19220;DHT22;9744;49.364;7.484;2024-02-26T07:53:29;4.80;99.90
19220;DHT22;9744;49.364;7.484;2024-02-26T07:55:56;4.80;99.90
19220;DHT22;9744;49.364;7.484;2024-02-26T07:58:23;4.80;99.90
19220;DHT22;9744;49.364;7.484;2024-02-26T08:00:51;4.80;99.90
19220;DHT22;9744;49.364;7.484;2024-02-26T08:03:24;4.80;99.90
19220;DHT22;9744;49.364;7.484;2024-02-26T08:05:52;4.80;99.90
19220;DHT22;9744;49.364;7.484;2024-02-26T08:08:23;4.90;99.90
19220;DHT22;9744;49.364;7.484;2024-02-26T08:10:50;4.80;99.90
19220;DHT22;9744;49.364;7.484;2024-02-26T08:13:20;4.90;99.90
19220;DHT22;9744;49.364;7.484;2024-02-26T08:15:47;5.00;99.90
19220;DHT22;9744;49.364;7.484;2024-02-26T08:18:15;5.00;99.90
19220;DHT22;9744;49.364;7.484;2024-02-26T08:20:43;5.00;99.90
19220;DHT22;9744;49.364;7.484;2024-02-26T08:23:11;5.00;99.90
19220;DHT22;9744;49.364;7.484;2024-02-26T08:25:39;5.10;99.90
19220;DHT22;9744;49.364;7.484;2024-02-26T08:28:06;5.10;99.90
19220;DHT22;9744;49.364;7.484;2024-02-26T08:30:34;5.20;99.90
19220;DHT22;9744;49.364;7.484;2024-02-26T08:33:29;5.20;99.90
19220;DHT22;9744;49.364;7.484;2024-02-26T08:35:57;5.20;99.90
19220;DHT22;9744;49.364;7.484;2024-02-26T08:38:26;5.30;99.90
19220;DHT22;9744;49.364;7.484;2024-02-26T08:40:54;5.50;99.90
19220;DHT22;9744;49.364;7.484;2024-02-26T08:43:21;5.50;99.90
19220;DHT22;9744;49.364;7.484;2024-02-26T08:45:48;5.60;99.90
19220;DHT22;9744;49.364;7.484;2024-02-26T08:48:16;5.60;99.90
19220;DHT22;9744;49.364;7.484;2024-02-26T08:50:43;5.70;99.90
19220;DHT22;9744;49.364;7.484;2024-02-26T08:53:10;5.70;99.90
19220;DHT22;9744;49.364;7.484;2024-02-26T08:55:39;5.70;99.90
19220;DHT22;9744;49.364;7.484;2024-02-26T08:58:06;5.70;99.90
19220;DHT22;9744;49.364;7.484;2024-02-26T09:00:33;5.70;99.90
19220;DHT22;9744;49.364;7.484;2024-02-26T09:03:01;5.80;99.90
19220;DHT22;9744;49.364;7.484;2024-02-26T09:05:29;5.70;99.90
19220;DHT22;9744;49.364;7.484;2024-02-26T09:07:56;5.90;99.90
19220;DHT22;9744;49.364;7.484;2024-02-26T09:10:23;5.90;99.90
19220;DHT22;9744;49.364;7.484;2024-02-26T09:12:52;6.00;99.90
19220;DHT22;9744;49.364;7.484;2024-02-26T09:15:21;6.00;99.90
19220;DHT22;9744;49.364;7.484;2024-02-26T09:17:48;6.00;99.90
19220;DHT22;9744;49.364;7.484;2024-02-26T09:20:16;6.00;99.90
19220;DHT22;9744;49.364;7.484;2024-02-26T09:22:45;6.10;99.90
19220;DHT22;9744;49.364;7.484;2024-02-26T09:25:14;6.10;99.90
19220;DHT22;9744;49.364;7.484;2024-02-26T09:27:43;6.20;99.90
19220;DHT22;9744;49.364;7.484;2024-02-26T09:30:13;6.20;99.90
19220;DHT22;9744;49.364;7.484;2024-02-26T09:32:41;6.30;99.90
19220;DHT22;9744;49.364;7.484;2024-02-26T09:35:08;6.30;99.90
19220;DHT22;9744;49.364;7.484;2024-02-26T09:37:35;6.40;99.90
19220;DHT22;9744;49.364;7.484;2024-02-26T09:40:03;6.40;99.90
19220;DHT22;9744;49.364;7.484;2024-02-26T09:42:32;6.40;99.90
19220;DHT22;9744;49.364;7.484;2024-02-26T09:45:00;6.40;99.90
19220;DHT22;9744;49.364;7.484;2024-02-26T09:47:31;6.50;99.90
19220;DHT22;9744;49.364;7.484;2024-02-26T09:50:01;6.50;99.90
19220;DHT22;9744;49.364;7.484;2024-02-26T09:52:31;6.60;99.90
19220;DHT22;9744;49.364;7.484;2024-02-26T09:55:00;6.50;99.90
19220;DHT22;9744;49.364;7.484;2024-02-26T09:57:29;6.60;99.90
19220;DHT22;9744;49.364;7.484;2024-02-26T09:59:59;6.60;99.90
19220;DHT22;9744;49.364;7.484;2024-02-26T10:02:36;6.70;99.90
19220;DHT22;9744;49.364;7.484;2024-02-26T10:05:05;6.80;99.90
19220;DHT22;9744;49.364;7.484;2024-02-26T10:07:35;6.90;99.90
19220;DHT22;9744;49.364;7.484;2024-02-26T10:10:04;7.00;99.90
19220;DHT22;9744;49.364;7.484;2024-02-26T10:12:31;7.10;99.90
19220;DHT22;9744;49.364;7.484;2024-02-26T10:14:59;7.20;99.90
19220;DHT22;9744;49.364;7.484;2024-02-26T10:17:27;7.20;99.90
19220;DHT22;9744;49.364;7.484;2024-02-26T10:20:11;7.30;99.90
19220;DHT22;9744;49.364;7.484;2024-02-26T10:22:47;7.40;99.90
19220;DHT22;9744;49.364;7.484;2024-02-26T10:25:15;7.50;99.90
19220;DHT22;9744;49.364;7.484;2024-02-26T10:27:42;7.50;99.90
19220;DHT22;9744;49.364;7.484;2024-02-26T10:30:17;7.60;99.90
19220;DHT22;9744;49.364;7.484;2024-02-26T10:32:45;7.80;99.90
19220;DHT22;9744;49.364;7.484;2024-02-26T10:35:15;7.90;99.90
19220;DHT22;9744;49.364;7.484;2024-02-26T10:37:43;7.90;99.90
19220;DHT22;9744;49.364;7.484;2024-02-26T10:40:11;8.00;99.90
19220;DHT22;9744;49.364;7.484;2024-02-26T10:42:38;8.10;99.90
19220;DHT22;9744;49.364;7.484;2024-02-26T10:45:09;8.10;99.90
19220;DHT22;9744;49.364;7.484;2024-02-26T10:47:36;8.20;99.90
19220;DHT22;9744;49.364;7.484;2024-02-26T10:50:05;8.30;99.90
19220;DHT22;9744;49.364;7.484;2024-02-26T10:52:35;8.40;99.90
19220;DHT22;9744;49.364;7.484;2024-02-26T10:55:03;8.40;99.90
19220;DHT22;9744;49.364;7.484;2024-02-26T10:57:34;8.40;99.90
19220;DHT22;9744;49.364;7.484;2024-02-26T11:00:04;8.50;99.90
19220;DHT22;9744;49.364;7.484;2024-02-26T11:02:33;8.60;99.90
19220;DHT22;9744;49.364;7.484;2024-02-26T11:05:02;8.60;99.90
19220;DHT22;9744;49.364;7.484;2024-02-26T11:07:31;8.80;99.90
19220;DHT22;9744;49.364;7.484;2024-02-26T11:10:00;8.90;99.90
19220;DHT22;9744;49.364;7.484;2024-02-26T11:12:29;9.10;99.90
19220;DHT22;9744;49.364;7.484;2024-02-26T11:14:57;9.30;99.90
19220;DHT22;9744;49.364;7.484;2024-02-26T11:17:26;9.60;99.90
19220;DHT22;9744;49.364;7.484;2024-02-26T11:19:55;9.70;99.90
19220;DHT22;9744;49.364;7.484;2024-02-26T11:22:23;9.80;99.90
19220;DHT22;9744;49.364;7.484;2024-02-26T11:24:52;9.80;99.90
19220;DHT22;9744;49.364;7.484;2024-02-26T11:27:29;9.80;99.90
19220;DHT22;9744;49.364;7.484;2024-02-26T11:30:00;9.80;99.90
19220;DHT22;9744;49.364;7.484;2024-02-26T11:32:31;9.90;99.90
19220;DHT22;9744;49.364;7.484;2024-02-26T11:35:01;10.00;99.90
19220;DHT22;9744;49.364;7.484;2024-02-26T11:37:29;10.00;99.90
19220;DHT22;9744;49.364;7.484;2024-02-26T11:39:59;10.10;99.90
19220;DHT22;9744;49.364;7.484;2024-02-26T11:42:28;10.10;99.90
19220;DHT22;9744;49.364;7.484;2024-02-26T11:44:56;10.10;99.90
19220;DHT22;9744;49.364;7.484;2024-02-26T11:47:27;10.20;99.90
19220;DHT22;9744;49.364;7.484;2024-02-26T11:49:54;10.20;99.90
19220;DHT22;9744;49.364;7.484;2024-02-26T11:52:21;10.30;99.90
19220;DHT22;9744;49.364;7.484;2024-02-26T11:54:50;10.50;99.90
19220;DHT22;9744;49.364;7.484;2024-02-26T11:57:28;10.60;99.90
19220;DHT22;9744;49.364;7.484;2024-02-26T11:59:56;10.70;99.90
19220;DHT22;9744;49.364;7.484;2024-02-26T12:02:40;10.80;99.90
19220;DHT22;9744;49.364;7.484;2024-02-26T12:05:11;10.80;99.90
19220;DHT22;9744;49.364;7.484;2024-02-26T12:07:43;10.90;99.90
19220;DHT22;9744;49.364;7.484;2024-02-26T12:10:23;10.90;99.90
19220;DHT22;9744;49.364;7.484;2024-02-26T12:12:59;11.00;99.90
19220;DHT22;9744;49.364;7.484;2024-02-26T12:15:36;11.00;99.90
19220;DHT22;9744;49.364;7.484;2024-02-26T12:18:05;11.00;99.90
19220;DHT22;9744;49.364;7.484;2024-02-26T12:20:33;11.00;99.90
19220;DHT22;9744;49.364;7.484;2024-02-26T12:23:01;11.10;99.90
19220;DHT22;9744;49.364;7.484;2024-02-26T12:25:30;11.10;99.90
19220;DHT22;9744;49.364;7.484;2024-02-26T12:28:00;11.10;99.90
19220;DHT22;9744;49.364;7.484;2024-02-26T12:30:27;11.10;99.90
19220;DHT22;9744;49.364;7.484;2024-02-26T12:33:00;11.10;99.90
19220;DHT22;9744;49.364;7.484;2024-02-26T12:35:29;11.10;99.90
19220;DHT22;9744;49.364;7.484;2024-02-26T12:37:58;11.10;99.90
19220;DHT22;9744;49.364;7.484;2024-02-26T12:40:25;11.00;99.90
19220;DHT22;9744;49.364;7.484;2024-02-26T12:43:20;11.10;99.90
19220;DHT22;9744;49.364;7.484;2024-02-26T12:45:47;11.10;99.90
19220;DHT22;9744;49.364;7.484;2024-02-26T12:48:15;11.10;99.90
19220;DHT22;9744;49.364;7.484;2024-02-26T12:50:44;11.10;99.90
19220;DHT22;9744;49.364;7.484;2024-02-26T12:53:13;11.10;99.90
19220;DHT22;9744;49.364;7.484;2024-02-26T12:55:41;11.00;99.90
19220;DHT22;9744;49.364;7.484;2024-02-26T12:58:09;11.00;99.90
19220;DHT22;9744;49.364;7.484;2024-02-26T13:00:38;11.00;99.90
19220;DHT22;9744;49.364;7.484;2024-02-26T13:03:06;11.00;99.90
19220;DHT22;9744;49.364;7.484;2024-02-26T13:05:34;11.00;99.90
19220;DHT22;9744;49.364;7.484;2024-02-26T13:08:01;11.00;99.90
19220;DHT22;9744;49.364;7.484;2024-02-26T13:10:29;11.00;99.90
19220;DHT22;9744;49.364;7.484;2024-02-26T13:12:58;10.90;99.90
19220;DHT22;9744;49.364;7.484;2024-02-26T13:15:28;10.90;99.90
19220;DHT22;9744;49.364;7.484;2024-02-26T13:17:57;10.90;99.90
19220;DHT22;9744;49.364;7.484;2024-02-26T13:20:27;10.90;99.90
19220;DHT22;9744;49.364;7.484;2024-02-26T13:29:03;11.00;99.90
19220;DHT22;9744;49.364;7.484;2024-02-26T13:31:38;11.00;99.90
19220;DHT22;9744;49.364;7.484;2024-02-26T13:34:08;11.00;99.90
19220;DHT22;9744;49.364;7.484;2024-02-26T13:36:36;11.10;99.90
19220;DHT22;9744;49.364;7.484;2024-02-26T13:39:03;11.10;99.90
19220;DHT22;9744;49.364;7.484;2024-02-26T13:41:31;11.10;99.90
19220;DHT22;9744;49.364;7.484;2024-02-26T13:43:59;11.10;99.90
19220;DHT22;9744;49.364;7.484;2024-02-26T13:46:26;11.20;99.90
19220;DHT22;9744;49.364;7.484;2024-02-26T13:48:54;11.20;99.90
19220;DHT22;9744;49.364;7.484;2024-02-26T13:51:22;11.40;99.90
19220;DHT22;9744;49.364;7.484;2024-02-26T13:53:50;11.70;99.90
19220;DHT22;9744;49.364;7.484;2024-02-26T13:56:17;11.90;99.90
19220;DHT22;9744;49.364;7.484;2024-02-26T13:58:45;12.00;99.90
19220;DHT22;9744;49.364;7.484;2024-02-26T14:01:12;12.20;99.90
19220;DHT22;9744;49.364;7.484;2024-02-26T14:03:39;12.20;99.90
19220;DHT22;9744;49.364;7.484;2024-02-26T14:06:07;12.10;99.90
19220;DHT22;9744;49.364;7.484;2024-02-26T14:08:35;12.10;99.90
19220;DHT22;9744;49.364;7.484;2024-02-26T14:11:03;12.00;99.90
19220;DHT22;9744;49.364;7.484;2024-02-26T14:13:30;12.00;99.90
19220;DHT22;9744;49.364;7.484;2024-02-26T14:15:57;11.90;99.90
19220;DHT22;9744;49.364;7.484;2024-02-26T14:18:25;11.90;99.90
19220;DHT22;9744;49.364;7.484;2024-02-26T14:20:53;11.80;99.90
19220;DHT22;9744;49.364;7.484;2024-02-26T14:23:20;11.80;99.90
19220;DHT22;9744;49.364;7.484;2024-02-26T14:25:50;11.70;99.90
19220;DHT22;9744;49.364;7.484;2024-02-26T14:28:17;11.70;99.90
19220;DHT22;9744;49.364;7.484;2024-02-26T14:30:44;11.60;99.90
19220;DHT22;9744;49.364;7.484;2024-02-26T14:33:15;11.50;99.90
19220;DHT22;9744;49.364;7.484;2024-02-26T14:35:50;11.50;99.90
19220;DHT22;9744;49.364;7.484;2024-02-26T14:38:17;11.40;99.90
19220;DHT22;9744;49.364;7.484;2024-02-26T14:40:44;11.40;99.90
19220;DHT22;9744;49.364;7.484;2024-02-26T14:43:13;11.30;99.90
19220;DHT22;9744;49.364;7.484;2024-02-26T14:45:41;11.20;99.90
19220;DHT22;9744;49.364;7.484;2024-02-26T14:48:09;11.20;99.90
19220;DHT22;9744;49.364;7.484;2024-02-26T14:50:37;11.10;99.90
19220;DHT22;9744;49.364;7.484;2024-02-26T14:53:04;11.10;99.90
19220;DHT22;9744;49.364;7.484;2024-02-26T14:55:31;11.20;99.90
19220;DHT22;9744;49.364;7.484;2024-02-26T14:58:00;11.30;99.90
19220;DHT22;9744;49.364;7.484;2024-02-26T15:00:32;11.30;99.90
19220;DHT22;9744;49.364;7.484;2024-02-26T15:03:05;11.40;99.90
19220;DHT22;9744;49.364;7.484;2024-02-26T15:05:33;11.40;99.90
19220;DHT22;9744;49.364;7.484;2024-02-26T15:08:01;11.40;99.90
19220;DHT22;9744;49.364;7.484;2024-02-26T15:10:28;11.40;99.90
19220;DHT22;9744;49.364;7.484;2024-02-26T15:12:56;11.40;99.90
19220;DHT22;9744;49.364;7.484;2024-02-26T15:15:23;11.30;99.90
19220;DHT22;9744;49.364;7.484;2024-02-26T15:17:51;11.30;99.90
19220;DHT22;9744;49.364;7.484;2024-02-26T15:20:19;11.30;99.90
19220;DHT22;9744;49.364;7.484;2024-02-26T15:22:46;11.30;99.90
19220;DHT22;9744;49.364;7.484;2024-02-26T15:25:14;11.20;99.90
19220;DHT22;9744;49.364;7.484;2024-02-26T15:27:42;11.20;99.90
19220;DHT22;9744;49.364;7.484;2024-02-26T15:30:12;11.20;99.90
19220;DHT22;9744;49.364;7.484;2024-02-26T15:32:39;11.40;99.90
19220;DHT22;9744;49.364;7.484;2024-02-26T15:35:11;11.60;99.90
19220;DHT22;9744;49.364;7.484;2024-02-26T15:37:38;11.80;99.90
19220;DHT22;9744;49.364;7.484;2024-02-26T15:40:06;12.10;99.90
19220;DHT22;9744;49.364;7.484;2024-02-26T15:42:34;12.40;99.90
19220;DHT22;9744;49.364;7.484;2024-02-26T15:45:01;12.90;99.90
19220;DHT22;9744;49.364;7.484;2024-02-26T15:47:28;13.20;99.90
19220;DHT22;9744;49.364;7.484;2024-02-26T15:49:56;13.40;99.90
19220;DHT22;9744;49.364;7.484;2024-02-26T15:52:26;13.40;99.90
19220;DHT22;9744;49.364;7.484;2024-02-26T15:54:55;13.40;99.90
19220;DHT22;9744;49.364;7.484;2024-02-26T15:57:22;13.40;99.90
19220;DHT22;9744;49.364;7.484;2024-02-26T15:59:49;13.40;99.90
19220;DHT22;9744;49.364;7.484;2024-02-26T16:02:19;13.30;99.90
19220;DHT22;9744;49.364;7.484;2024-02-26T16:04:47;13.20;99.90
19220;DHT22;9744;49.364;7.484;2024-02-26T16:07:20;13.20;99.90
19220;DHT22;9744;49.364;7.484;2024-02-26T16:09:52;13.10;99.90
19220;DHT22;9744;49.364;7.484;2024-02-26T16:12:25;13.10;99.90